createdAt,value
2023-03-01T00:01:46.243Z,8.97
2023-03-01T00:04:14.145Z,8.43
2023-03-01T00:06:47.171Z,10.37
2023-03-01T00:09:17.993Z,10.00
2023-03-01T00:11:47.099Z,9.13
2023-03-01T00:14:17.385Z,9.10
2023-03-01T00:16:47.546Z,8.40
2023-03-01T00:19:21.433Z,8.33
2023-03-01T00:21:50.019Z,7.90
2023-03-01T00:24:18.143Z,8.03
2023-03-01T00:26:46.022Z,8.90
2023-03-01T00:29:14.031Z,9.30
2023-03-01T00:31:41.892Z,9.23
2023-03-01T00:34:10.849Z,8.10
2023-03-01T00:36:41.223Z,8.10
2023-03-01T00:39:16.393Z,9.50
2023-03-01T00:41:45.556Z,7.90
2023-03-01T00:44:13.319Z,7.93
2023-03-01T00:46:41.562Z,8.53
2023-03-01T00:49:09.643Z,7.90
2023-03-01T00:51:37.714Z,8.50
2023-03-01T00:54:05.585Z,8.97
2023-03-01T00:56:34.145Z,8.20
2023-03-01T00:59:03.098Z,8.97
2023-03-01T01:01:33.015Z,9.03
2023-03-01T01:04:13.662Z,10.57
2023-03-01T01:06:48.138Z,9.13
2023-03-01T01:09:19.372Z,8.30
2023-03-01T01:11:52.347Z,8.50
2023-03-01T01:14:21.788Z,9.00
2023-03-01T01:16:50.346Z,8.70
2023-03-01T01:19:18.683Z,8.90
2023-03-01T01:21:46.537Z,9.60
2023-03-01T01:24:14.834Z,10.03
2023-03-01T01:26:43.818Z,10.00
2023-03-01T01:29:12.484Z,8.10
2023-03-01T01:31:43.762Z,8.17
2023-03-01T01:34:23.118Z,8.57
2023-03-01T01:36:55.441Z,9.07
2023-03-01T01:39:24.260Z,9.17
2023-03-01T01:41:52.016Z,9.37
2023-03-01T01:44:29.743Z,8.57
2023-03-01T01:47:23.380Z,9.30
2023-03-01T01:49:58.209Z,9.60
2023-03-01T01:52:37.464Z,8.10
2023-03-01T01:55:14.016Z,9.00
2023-03-01T01:57:54.914Z,9.30
2023-03-01T02:00:29.469Z,8.97
2023-03-01T02:03:07.774Z,8.43
2023-03-01T02:06:13.241Z,9.40
2023-03-01T02:08:45.269Z,7.73
2023-03-01T02:11:16.034Z,8.90
2023-03-01T02:13:48.298Z,8.07
2023-03-01T02:16:19.148Z,8.27
2023-03-01T02:18:48.549Z,7.97
2023-03-01T02:22:09.623Z,8.20
2023-03-01T02:25:20.007Z,9.23
2023-03-01T02:28:16.565Z,7.67
2023-03-01T02:31:09.941Z,9.17
2023-03-01T02:33:43.381Z,8.80
2023-03-01T02:36:51.044Z,8.93
2023-03-01T02:39:43.314Z,8.80
2023-03-01T02:42:30.686Z,8.53
2023-03-01T02:44:59.291Z,9.90
2023-03-01T02:47:27.319Z,8.33
2023-03-01T02:49:55.095Z,9.30
2023-03-01T02:53:02.554Z,8.90
2023-03-01T02:55:30.489Z,9.80
2023-03-01T02:58:03.868Z,9.67
2023-03-01T03:00:48.169Z,9.87
2023-03-01T03:03:23.365Z,8.93
2023-03-01T03:05:51.335Z,9.67
2023-03-01T03:08:25.290Z,9.10
2023-03-01T03:10:54.369Z,9.27
2023-03-01T03:13:23.308Z,9.17
2023-03-01T03:15:51.872Z,9.53
2023-03-01T03:18:20.044Z,8.33
2023-03-01T03:20:53.686Z,9.43
2023-03-01T03:23:23.508Z,9.97
2023-03-01T03:25:52.753Z,8.63
2023-03-01T03:28:20.897Z,9.57
2023-03-01T03:30:51.419Z,9.50
2023-03-01T03:33:19.123Z,8.83
2023-03-01T03:35:50.893Z,9.50
2023-03-01T03:38:23.107Z,9.87
2023-03-01T03:41:09.245Z,9.50
2023-03-01T03:43:43.727Z,9.50
2023-03-01T03:46:14.194Z,10.10
2023-03-01T03:48:46.758Z,9.57
2023-03-01T03:51:19.187Z,9.63
2023-03-01T03:53:47.682Z,10.07
2023-03-01T03:56:17.868Z,8.50
2023-03-01T03:58:48.423Z,10.90
2023-03-01T04:01:16.512Z,9.40
2023-03-01T04:03:47.768Z,9.23
2023-03-01T04:06:16.666Z,10.30
2023-03-01T04:08:44.416Z,11.30
2023-03-01T04:11:28.980Z,9.40
2023-03-01T04:14:00.538Z,9.60
2023-03-01T04:16:29.066Z,9.73
2023-03-01T04:18:57.704Z,9.20
2023-03-01T04:21:25.928Z,9.73
2023-03-01T04:23:53.906Z,10.77
2023-03-01T04:26:22.192Z,10.13
2023-03-01T04:28:51.619Z,9.00
2023-03-01T04:31:22.635Z,9.13
2023-03-01T04:33:57.503Z,10.60
2023-03-01T04:36:31.484Z,9.03
2023-03-01T04:38:59.809Z,9.47
2023-03-01T04:41:28.091Z,9.33
2023-03-01T04:43:56.011Z,10.13
2023-03-01T04:46:24.148Z,9.70
2023-03-01T04:48:52.059Z,10.40
2023-03-01T04:51:19.980Z,10.07
2023-03-01T04:53:48.901Z,10.17
2023-03-01T04:56:19.105Z,9.57
2023-03-01T04:58:49.632Z,11.10
2023-03-01T05:01:22.033Z,9.37
2023-03-01T05:03:53.275Z,10.63
2023-03-01T05:06:22.291Z,11.30
2023-03-01T05:08:50.375Z,10.53
2023-03-01T05:11:18.476Z,11.20
2023-03-01T05:13:46.611Z,10.23
2023-03-01T05:16:14.813Z,9.80
2023-03-01T05:18:44.247Z,9.97
2023-03-01T05:21:18.377Z,9.87
2023-03-01T05:23:47.950Z,9.87
2023-03-01T05:26:28.151Z,11.20
2023-03-01T05:29:00.885Z,11.23
2023-03-01T05:31:34.144Z,10.70
2023-03-01T05:34:03.410Z,10.57
2023-03-01T05:36:31.305Z,10.50
2023-03-01T05:38:59.262Z,11.10
2023-03-01T05:41:27.159Z,11.00
2023-03-01T05:43:55.159Z,10.50
2023-03-01T05:46:25.663Z,10.90
2023-03-01T05:48:53.683Z,11.73
2023-03-01T05:51:22.443Z,10.60
2023-03-01T05:53:50.449Z,11.40
2023-03-01T05:56:18.151Z,11.53
2023-03-01T05:58:45.940Z,12.43
2023-03-01T06:01:14.752Z,9.20
2023-03-01T06:03:43.535Z,10.70
2023-03-01T06:06:11.244Z,10.00
2023-03-01T06:08:39.249Z,10.40
2023-03-01T06:11:08.435Z,11.50
2023-03-01T06:13:36.349Z,12.17
2023-03-01T06:16:08.762Z,10.40
2023-03-01T06:18:38.496Z,10.10
2023-03-01T06:21:09.727Z,12.30
2023-03-01T06:23:38.920Z,10.20
2023-03-01T06:26:12.370Z,11.60
2023-03-01T06:28:42.575Z,10.40
2023-03-01T06:31:13.943Z,9.80
2023-03-01T06:33:46.576Z,11.23
2023-03-01T06:36:20.921Z,10.63
2023-03-01T06:38:51.435Z,10.63
2023-03-01T06:41:22.284Z,10.63
2023-03-01T06:43:52.986Z,10.37
2023-03-01T06:46:24.470Z,11.77
2023-03-01T06:48:53.980Z,10.53
2023-03-01T06:51:25.965Z,9.73
2023-03-01T06:53:54.875Z,10.83
2023-03-01T06:56:23.034Z,11.43
2023-03-01T06:58:54.304Z,9.50
2023-03-01T07:01:24.609Z,10.70
2023-03-01T07:03:55.289Z,9.20
2023-03-01T07:06:32.755Z,11.33
2023-03-01T07:09:01.780Z,11.23
2023-03-01T07:11:29.459Z,10.13
2023-03-01T07:13:57.352Z,8.47
2023-03-01T07:16:25.411Z,10.97
2023-03-01T07:18:53.369Z,11.47
2023-03-01T07:21:21.408Z,10.00
2023-03-01T07:23:50.209Z,12.40
2023-03-01T07:26:18.194Z,8.43
2023-03-01T07:28:46.291Z,9.10
2023-03-01T07:31:14.807Z,9.50
2023-03-01T07:33:43.120Z,10.17
2023-03-01T07:36:11.301Z,9.30
2023-03-01T07:38:39.322Z,8.40
2023-03-01T07:41:07.339Z,8.70
2023-03-01T07:43:40.023Z,9.50
2023-03-01T07:46:08.295Z,7.80
2023-03-01T07:48:36.629Z,8.53
2023-03-01T07:51:08.293Z,7.63
2023-03-01T07:53:36.935Z,10.20
2023-03-01T07:56:14.662Z,9.30
2023-03-01T07:58:45.561Z,7.33
2023-03-01T08:01:22.473Z,9.03
2023-03-01T08:03:50.404Z,9.37
2023-03-01T08:06:20.156Z,9.20
2023-03-01T08:08:48.334Z,8.47
2023-03-01T08:11:17.424Z,8.60
2023-03-01T08:13:51.544Z,8.60
2023-03-01T08:16:22.145Z,8.00
2023-03-01T08:18:50.156Z,7.83
2023-03-01T08:21:20.097Z,9.77
2023-03-01T08:23:48.092Z,8.33
2023-03-01T08:26:22.744Z,7.87
2023-03-01T08:28:51.486Z,8.63
2023-03-01T08:31:41.590Z,9.80
2023-03-01T08:34:16.092Z,8.73
2023-03-01T08:36:48.069Z,11.27
2023-03-01T08:39:21.376Z,9.20
2023-03-01T08:41:49.912Z,10.00
2023-03-01T08:44:18.251Z,11.13
2023-03-01T08:46:51.111Z,11.03
2023-03-01T08:49:21.780Z,11.47
2023-03-01T08:51:50.212Z,12.30
2023-03-01T08:54:22.913Z,9.87
2023-03-01T08:56:51.149Z,8.33
2023-03-01T08:59:20.639Z,13.53
2023-03-01T09:01:48.658Z,11.10
2023-03-01T09:04:17.754Z,10.53
2023-03-01T09:06:47.105Z,9.20
2023-03-01T09:09:18.882Z,8.60
2023-03-01T09:11:48.182Z,6.20
2023-03-01T09:14:16.366Z,7.10
2023-03-01T09:16:45.118Z,7.57
2023-03-01T09:19:13.425Z,5.03
2023-03-01T09:21:41.921Z,7.57
2023-03-01T09:24:16.325Z,7.70
2023-03-01T09:26:48.853Z,8.03
2023-03-01T09:29:18.856Z,8.33
2023-03-01T09:31:47.224Z,8.30
2023-03-01T09:34:17.270Z,8.20
2023-03-01T09:36:45.240Z,7.83
2023-03-01T09:39:13.011Z,8.20
2023-03-01T09:42:03.382Z,6.10
2023-03-01T09:44:51.896Z,8.10
2023-03-01T09:47:36.584Z,8.00
2023-03-01T09:50:23.247Z,7.13
2023-03-01T09:53:17.101Z,8.27
2023-03-01T09:56:28.182Z,7.90
2023-03-01T10:00:13.711Z,8.00
2023-03-01T10:03:25.200Z,6.50
2023-03-01T10:06:34.315Z,5.63
2023-03-01T10:09:17.260Z,6.87
2023-03-01T10:11:55.159Z,6.63
2023-03-01T10:14:54.325Z,7.80
2023-03-01T10:18:08.864Z,7.63
2023-03-01T10:21:13.306Z,7.80
2023-03-01T10:23:41.250Z,7.90
2023-03-01T10:26:58.292Z,7.30
2023-03-01T10:30:02.195Z,6.87
2023-03-01T10:32:31.278Z,4.97
2023-03-01T10:34:59.668Z,6.27
2023-03-01T10:37:28.541Z,6.30
2023-03-01T10:40:11.055Z,6.97
2023-03-01T10:42:51.726Z,8.40
2023-03-01T10:45:40.635Z,6.80
2023-03-01T10:48:25.659Z,7.90
2023-03-01T10:51:02.312Z,6.70
2023-03-01T10:53:42.007Z,7.57
2023-03-01T10:56:16.609Z,7.27
2023-03-01T10:59:30.626Z,6.90
2023-03-01T11:02:35.113Z,6.10
2023-03-01T11:05:25.057Z,7.03
2023-03-01T11:08:04.600Z,6.63
2023-03-01T11:10:37.693Z,8.00
2023-03-01T11:13:24.558Z,8.07
2023-03-01T11:16:13.614Z,8.20
2023-03-01T11:18:48.018Z,7.87
2023-03-01T11:21:17.949Z,5.63
2023-03-01T11:23:48.321Z,6.03
2023-03-01T11:26:20.912Z,5.73
2023-03-01T11:29:02.252Z,8.50
2023-03-01T11:31:33.566Z,12.63
2023-03-01T11:34:38.650Z,7.37
2023-03-01T11:38:05.006Z,8.07
2023-03-01T11:41:16.540Z,8.90
2023-03-01T11:44:11.921Z,7.20
2023-03-01T11:47:19.660Z,5.50
2023-03-01T11:50:27.267Z,7.23
2023-03-01T11:53:17.919Z,6.07
2023-03-01T11:56:35.056Z,7.67
2023-03-01T11:59:53.332Z,9.10
2023-03-01T12:02:42.793Z,8.73
2023-03-01T12:06:08.214Z,7.00
2023-03-01T12:09:03.385Z,7.57
2023-03-01T12:12:23.464Z,7.10
2023-03-01T12:15:36.841Z,5.03
2023-03-01T12:19:21.366Z,8.40
2023-03-01T12:22:14.642Z,7.17
2023-03-01T12:25:21.894Z,6.97
2023-03-01T12:28:16.912Z,6.80
2023-03-01T12:31:48.749Z,6.00
2023-03-01T12:35:02.098Z,5.50
2023-03-01T12:38:35.786Z,5.03
2023-03-01T12:41:44.982Z,6.70
2023-03-01T12:44:41.965Z,7.10
2023-03-01T12:47:55.799Z,6.23
2023-03-01T12:50:52.357Z,6.17
2023-03-01T12:53:46.484Z,6.33
2023-03-01T12:56:24.333Z,6.80
2023-03-01T12:59:48.652Z,6.33
2023-03-01T13:03:22.676Z,6.67
2023-03-01T13:06:41.328Z,6.50
2023-03-01T13:09:58.339Z,6.47
2023-03-01T13:13:06.446Z,6.67
2023-03-01T13:15:43.481Z,5.93
2023-03-01T13:18:17.750Z,6.77
2023-03-01T13:20:45.320Z,5.73
2023-03-01T13:23:25.779Z,7.50
2023-03-01T13:26:18.115Z,6.47
2023-03-01T13:29:01.149Z,7.40
2023-03-01T13:31:28.776Z,6.47
2023-03-01T13:34:09.139Z,7.13
2023-03-01T13:36:37.247Z,6.40
2023-03-01T13:39:39.671Z,6.60
2023-03-01T13:42:48.197Z,6.17
2023-03-01T13:45:42.422Z,6.70
2023-03-01T13:48:30.757Z,7.37
2023-03-01T13:51:10.063Z,7.50
2023-03-01T13:53:49.382Z,7.23
2023-03-01T13:56:38.325Z,5.90
2023-03-01T13:59:24.077Z,7.83
2023-03-01T14:02:02.340Z,7.23
2023-03-01T14:04:38.776Z,7.77
2023-03-01T14:07:22.633Z,8.80
2023-03-01T14:09:59.884Z,9.80
2023-03-01T14:12:59.621Z,6.97
2023-03-01T14:15:43.586Z,8.30
2023-03-01T14:19:03.573Z,8.33
2023-03-01T14:21:32.295Z,7.13
2023-03-01T14:24:00.592Z,6.10
2023-03-01T14:26:28.516Z,6.50
2023-03-01T14:28:57.099Z,7.97
2023-03-01T14:31:52.435Z,8.57
2023-03-01T14:34:26.478Z,8.40
2023-03-01T14:36:54.385Z,6.77
2023-03-01T14:39:29.682Z,7.40
2023-03-01T14:42:10.607Z,7.80
2023-03-01T14:44:54.014Z,7.00
2023-03-01T14:47:35.717Z,7.23
2023-03-01T14:50:37.063Z,7.40
2023-03-01T14:53:16.553Z,7.30
2023-03-01T14:56:07.908Z,7.07
2023-03-01T14:58:39.341Z,7.00
2023-03-01T15:01:10.293Z,7.60
2023-03-01T15:03:50.290Z,7.27
2023-03-01T15:06:24.893Z,6.90
2023-03-01T15:08:58.012Z,6.50
2023-03-01T15:11:34.507Z,6.83
2023-03-01T15:14:02.469Z,8.10
2023-03-01T15:16:42.418Z,7.23
2023-03-01T15:19:20.400Z,6.60
2023-03-01T15:21:51.788Z,6.80
2023-03-01T15:24:28.817Z,6.90
2023-03-01T15:27:07.786Z,6.37
2023-03-01T15:29:41.756Z,5.90
2023-03-01T15:32:41.153Z,6.70
2023-03-01T15:35:49.326Z,7.80
2023-03-01T15:38:59.214Z,7.27
2023-03-01T15:41:47.869Z,7.27
2023-03-01T15:44:51.281Z,7.60
2023-03-01T15:47:52.379Z,6.40
2023-03-01T15:50:38.677Z,8.60
2023-03-01T15:53:16.888Z,7.63
2023-03-01T15:55:50.124Z,7.53
2023-03-01T15:58:25.724Z,8.00
2023-03-01T16:01:01.147Z,6.17
2023-03-01T16:03:31.945Z,7.00
2023-03-01T16:06:04.959Z,8.00
2023-03-01T16:08:34.040Z,7.10
2023-03-01T16:11:06.063Z,7.53
2023-03-01T16:13:34.608Z,7.60
2023-03-01T16:16:08.093Z,8.77
2023-03-01T16:18:40.103Z,8.10
2023-03-01T16:21:23.296Z,7.03
2023-03-01T16:23:54.599Z,8.00
2023-03-01T16:26:24.281Z,7.37
2023-03-01T16:28:58.427Z,6.00
2023-03-01T16:31:28.257Z,7.80
2023-03-01T16:34:01.255Z,7.97
2023-03-01T16:36:29.995Z,7.50
2023-03-01T16:39:01.775Z,6.30
2023-03-01T16:41:30.603Z,7.23
2023-03-01T16:43:58.622Z,7.70
2023-03-01T16:46:30.455Z,8.10
2023-03-01T16:48:59.036Z,7.60
2023-03-01T16:51:27.366Z,6.70
2023-03-01T16:53:55.313Z,6.63
2023-03-01T16:56:23.233Z,7.97
2023-03-01T16:58:51.094Z,6.67
2023-03-01T17:01:25.484Z,7.40
2023-03-01T17:03:53.885Z,7.10
2023-03-01T17:06:25.884Z,7.10
2023-03-01T17:08:53.700Z,6.30
2023-03-01T17:11:22.223Z,7.07
2023-03-01T17:13:50.579Z,7.90
2023-03-01T17:16:22.112Z,7.63
2023-03-01T17:18:50.845Z,6.90
2023-03-01T17:21:18.680Z,7.20
2023-03-01T17:23:48.350Z,6.60
2023-03-01T17:26:17.412Z,6.93
2023-03-01T17:28:45.121Z,8.37
2023-03-01T17:31:13.073Z,7.00
2023-03-01T17:33:41.064Z,7.77
2023-03-01T17:36:08.933Z,7.73
2023-03-01T17:38:37.495Z,8.20
2023-03-01T17:41:06.408Z,8.10
2023-03-01T17:43:37.320Z,8.57
2023-03-01T17:46:05.633Z,8.80
2023-03-01T17:48:33.417Z,8.80
2023-03-01T17:51:06.701Z,8.43
2023-03-01T17:53:34.628Z,8.23
2023-03-01T17:56:07.158Z,8.20
2023-03-01T17:58:35.215Z,7.47
2023-03-01T18:01:18.888Z,8.30
2023-03-01T18:03:47.970Z,7.50
2023-03-01T18:06:24.981Z,7.20
2023-03-01T18:08:55.218Z,8.30
2023-03-01T18:11:26.590Z,7.70
2023-03-01T18:13:56.358Z,8.90
2023-03-01T18:16:25.181Z,6.77
2023-03-01T18:18:58.541Z,7.47
2023-03-01T18:21:27.478Z,7.33
2023-03-01T18:24:00.051Z,7.00
2023-03-01T18:26:29.924Z,6.87
2023-03-01T18:29:01.365Z,7.80
2023-03-01T18:31:33.395Z,5.90
2023-03-01T18:34:02.141Z,7.53
2023-03-01T18:36:35.907Z,9.03
2023-03-01T18:39:08.443Z,7.00
2023-03-01T18:41:37.817Z,7.30
2023-03-01T18:44:06.705Z,7.30
2023-03-01T18:46:37.945Z,8.00
2023-03-01T18:49:08.869Z,7.57
2023-03-01T18:51:36.715Z,7.47
2023-03-01T18:54:05.267Z,7.60
2023-03-01T18:56:35.215Z,6.50
2023-03-01T18:59:04.161Z,6.33
2023-03-01T19:01:36.880Z,8.83
2023-03-01T19:04:06.614Z,7.20
2023-03-01T19:06:38.537Z,6.77
2023-03-01T19:09:11.525Z,8.27
2023-03-01T19:11:39.730Z,8.37
2023-03-01T19:14:08.595Z,7.87
2023-03-01T19:16:36.650Z,7.30
2023-03-01T19:19:09.871Z,8.03
2023-03-01T19:21:38.054Z,8.50
2023-03-01T19:24:07.437Z,8.60
2023-03-01T19:26:36.236Z,8.10
2023-03-01T19:29:05.135Z,8.40
2023-03-01T19:31:33.501Z,7.63
2023-03-01T19:34:11.769Z,6.53
2023-03-01T19:36:43.652Z,9.30
2023-03-01T19:39:14.512Z,6.87
2023-03-01T19:41:44.516Z,7.93
2023-03-01T19:44:13.080Z,8.53
2023-03-01T19:46:41.982Z,8.00
2023-03-01T19:49:10.938Z,8.17
2023-03-01T19:51:39.582Z,8.00
2023-03-01T19:54:09.946Z,8.67
2023-03-01T19:56:39.097Z,7.57
2023-03-01T19:59:07.565Z,8.73
2023-03-01T20:01:37.745Z,8.40
2023-03-01T20:04:06.317Z,7.03
2023-03-01T20:06:34.346Z,7.90
2023-03-01T20:09:20.945Z,7.43
2023-03-01T20:11:51.547Z,8.13
2023-03-01T20:14:23.256Z,6.90
2023-03-01T20:16:52.765Z,7.00
2023-03-01T20:19:21.444Z,7.60
2023-03-01T20:21:49.345Z,7.20
2023-03-01T20:24:17.091Z,8.40
2023-03-01T20:26:45.022Z,7.50
2023-03-01T20:29:13.011Z,7.20
2023-03-01T20:31:42.651Z,7.43
2023-03-01T20:34:10.878Z,7.87
2023-03-01T20:36:39.490Z,7.70
2023-03-01T20:39:09.796Z,8.00
2023-03-01T20:41:39.441Z,6.00
2023-03-01T20:44:07.450Z,7.80
2023-03-01T20:46:37.894Z,7.30
2023-03-01T20:49:07.391Z,7.23
2023-03-01T20:51:35.366Z,6.83
2023-03-01T20:54:03.757Z,6.73
2023-03-01T20:56:32.353Z,7.60
2023-03-01T20:59:10.964Z,7.73
2023-03-01T21:01:40.155Z,7.13
2023-03-01T21:04:09.306Z,7.33
2023-03-01T21:06:38.962Z,7.10
2023-03-01T21:09:07.277Z,7.60
2023-03-01T21:11:35.141Z,6.67
2023-03-01T21:14:05.405Z,7.00
2023-03-01T21:16:35.253Z,6.53
2023-03-01T21:19:06.222Z,6.77
2023-03-01T21:21:34.114Z,7.17
2023-03-01T21:24:01.841Z,6.73
2023-03-01T21:26:29.736Z,6.33
2023-03-01T21:29:04.195Z,7.03
2023-03-01T21:31:35.922Z,7.70
2023-03-01T21:34:06.948Z,6.43
2023-03-01T21:36:36.463Z,7.00
2023-03-01T21:39:07.542Z,6.20
2023-03-01T21:41:38.359Z,7.17
2023-03-01T21:44:07.999Z,7.80
2023-03-01T21:46:40.097Z,7.10
2023-03-01T21:49:10.758Z,5.87
2023-03-01T21:51:38.963Z,6.33
2023-03-01T21:54:08.156Z,7.37
2023-03-01T21:56:39.386Z,6.47
2023-03-01T21:59:18.407Z,7.07
2023-03-01T22:01:48.763Z,6.73
2023-03-01T22:04:18.305Z,6.20
2023-03-01T22:06:47.843Z,6.37
2023-03-01T22:09:23.763Z,7.10
2023-03-01T22:12:03.748Z,5.93
2023-03-01T22:14:33.268Z,6.60
2023-03-01T22:17:01.370Z,7.10
2023-03-01T22:19:29.203Z,5.47
2023-03-01T22:21:57.132Z,7.43
2023-03-01T22:24:26.587Z,6.17
2023-03-01T22:26:55.476Z,6.13
2023-03-01T22:29:29.571Z,5.67
2023-03-01T22:31:59.115Z,7.23
2023-03-01T22:34:28.362Z,5.43
2023-03-01T22:36:57.146Z,6.00
2023-03-01T22:39:24.921Z,6.23
2023-03-01T22:41:55.434Z,5.00
2023-03-01T22:44:24.031Z,5.47
2023-03-01T22:46:53.249Z,5.17
2023-03-01T22:49:21.876Z,7.03
2023-03-01T22:51:50.789Z,6.37
2023-03-01T22:54:20.598Z,6.20
2023-03-01T22:56:49.009Z,5.80
2023-03-01T22:59:23.176Z,6.03
2023-03-01T23:01:53.372Z,5.57
2023-03-01T23:04:24.456Z,5.70
2023-03-01T23:06:55.586Z,6.40
2023-03-01T23:09:34.582Z,6.00
2023-03-01T23:12:06.878Z,6.03
2023-03-01T23:14:36.139Z,6.30
2023-03-01T23:17:05.555Z,5.83
2023-03-01T23:19:35.036Z,6.17
2023-03-01T23:22:06.107Z,6.10
2023-03-01T23:24:35.179Z,5.90
2023-03-01T23:27:10.326Z,5.80
2023-03-01T23:29:38.877Z,6.17
2023-03-01T23:32:06.799Z,6.90
2023-03-01T23:34:34.908Z,6.30
2023-03-01T23:37:03.620Z,7.03
2023-03-01T23:39:32.697Z,6.10
2023-03-01T23:42:00.438Z,6.60
2023-03-01T23:44:28.522Z,7.13
2023-03-01T23:46:56.413Z,6.93
2023-03-01T23:49:25.332Z,7.20
2023-03-01T23:51:53.294Z,6.80
2023-03-01T23:54:24.931Z,6.00
2023-03-01T23:56:53.171Z,7.70
2023-03-01T23:59:24.485Z,7.97
